createdAt,value
2023-03-18T00:02:10.558Z,99.90
2023-03-18T00:04:37.645Z,99.90
2023-03-18T00:07:04.854Z,99.90
2023-03-18T00:09:32.394Z,99.90
2023-03-18T00:11:59.438Z,99.90
2023-03-18T00:14:26.593Z,99.90
2023-03-18T00:16:53.635Z,99.90
2023-03-18T00:19:20.686Z,99.90
2023-03-18T00:21:47.741Z,99.90
2023-03-18T00:24:15.413Z,99.90
2023-03-18T00:26:43.630Z,99.90
2023-03-18T00:29:11.179Z,99.90
2023-03-18T00:31:38.496Z,99.90
2023-03-18T00:34:05.664Z,99.90
2023-03-18T00:36:32.766Z,99.90
2023-03-18T00:39:03.561Z,99.90
2023-03-18T00:41:32.898Z,99.90
2023-03-18T00:43:59.950Z,99.90
2023-03-18T00:46:34.131Z,99.90
2023-03-18T00:49:02.814Z,99.90
2023-03-18T00:51:31.453Z,99.90
2023-03-18T00:53:59.031Z,99.90
2023-03-18T00:56:26.701Z,99.90
2023-03-18T00:58:53.890Z,99.90
2023-03-18T01:01:21.361Z,99.90
2023-03-18T01:03:49.424Z,99.90
2023-03-18T01:06:20.966Z,99.90
2023-03-18T01:08:48.206Z,99.90
2023-03-18T01:11:15.280Z,99.90
2023-03-18T01:13:42.503Z,99.90
2023-03-18T01:16:09.583Z,99.90
2023-03-18T01:18:37.213Z,99.90
2023-03-18T01:21:04.434Z,99.90
2023-03-18T01:23:36.444Z,99.90
2023-03-18T01:26:03.616Z,99.90
2023-03-18T01:28:31.739Z,99.90
2023-03-18T01:30:59.851Z,99.90
2023-03-18T01:33:28.758Z,99.90
2023-03-18T01:35:56.636Z,99.90
2023-03-18T01:38:27.431Z,99.90
2023-03-18T01:40:54.597Z,99.90
2023-03-18T01:43:27.969Z,99.90
2023-03-18T01:45:58.415Z,99.90
2023-03-18T01:48:26.660Z,99.90
2023-03-18T01:51:01.132Z,99.90
2023-03-18T01:53:28.809Z,99.90
2023-03-18T01:55:57.422Z,99.90
2023-03-18T01:58:26.962Z,99.90
2023-03-18T02:00:55.578Z,99.90
2023-03-18T02:03:22.809Z,99.90
2023-03-18T02:05:50.265Z,99.90
2023-03-18T02:08:17.998Z,99.90
2023-03-18T02:10:45.487Z,99.90
2023-03-18T02:13:14.634Z,99.90
2023-03-18T02:15:45.753Z,99.90
2023-03-18T02:18:14.295Z,99.90
2023-03-18T02:20:53.458Z,99.90
2023-03-18T02:23:41.619Z,99.90
2023-03-18T02:26:15.220Z,99.90
2023-03-18T02:28:42.263Z,99.90
2023-03-18T02:31:11.687Z,99.90
2023-03-18T02:33:41.834Z,99.90
2023-03-18T02:36:14.082Z,99.90
2023-03-18T02:38:43.081Z,99.90
2023-03-18T02:41:15.942Z,99.90
2023-03-18T02:43:43.405Z,99.90
2023-03-18T02:46:31.029Z,99.90
2023-03-18T02:48:59.158Z,99.90
2023-03-18T02:51:26.269Z,99.90
2023-03-18T02:54:26.500Z,99.90
2023-03-18T02:56:53.622Z,99.90
2023-03-18T02:59:20.890Z,99.90
2023-03-18T03:01:48.597Z,99.90
2023-03-18T03:04:16.112Z,99.90
2023-03-18T03:06:43.684Z,99.90
2023-03-18T03:09:13.542Z,99.90
2023-03-18T03:11:40.828Z,99.90
2023-03-18T03:14:14.144Z,99.90
2023-03-18T03:16:41.949Z,99.90
2023-03-18T03:19:09.029Z,99.90
2023-03-18T03:21:37.188Z,99.90
2023-03-18T03:24:04.693Z,99.90
2023-03-18T03:26:32.074Z,99.90
2023-03-18T03:29:00.354Z,99.90
2023-03-18T03:31:27.489Z,99.90
2023-03-18T03:33:54.599Z,99.90
2023-03-18T03:36:21.756Z,99.90
2023-03-18T03:38:48.808Z,99.90
2023-03-18T03:41:16.081Z,99.90
2023-03-18T03:43:43.274Z,99.90
2023-03-18T03:46:10.889Z,99.90
2023-03-18T03:48:39.357Z,99.90
2023-03-18T03:51:10.954Z,99.90
2023-03-18T03:53:38.213Z,99.90
2023-03-18T03:56:07.495Z,99.90
2023-03-18T03:58:34.979Z,99.90
2023-03-18T04:01:02.508Z,99.90
2023-03-18T04:03:29.852Z,99.90
2023-03-18T04:05:57.278Z,99.90
2023-03-18T04:08:27.448Z,99.90
2023-03-18T04:10:54.635Z,99.90
2023-03-18T04:13:21.783Z,99.90
2023-03-18T04:15:49.301Z,99.90
2023-03-18T04:18:19.147Z,99.90
2023-03-18T04:20:46.489Z,99.90
2023-03-18T04:23:36.396Z,99.90
2023-03-18T04:26:05.310Z,99.90
2023-03-18T04:28:33.067Z,99.90
2023-03-18T04:31:00.797Z,99.90
2023-03-18T04:33:27.894Z,99.90
2023-03-18T04:35:54.889Z,99.90
2023-03-18T04:38:24.493Z,99.90
2023-03-18T04:40:53.146Z,99.90
2023-03-18T04:43:26.392Z,99.90
2023-03-18T04:45:53.512Z,99.90
2023-03-18T04:48:21.447Z,99.90
2023-03-18T04:50:51.824Z,99.90
2023-03-18T04:53:24.436Z,99.90
2023-03-18T04:55:53.053Z,99.90
2023-03-18T04:58:24.950Z,99.90
2023-03-18T05:01:04.585Z,99.90
2023-03-18T05:03:36.269Z,99.90
2023-03-18T05:06:03.455Z,99.90
2023-03-18T05:08:41.829Z,99.90
2023-03-18T05:11:08.965Z,99.90
2023-03-18T05:13:38.272Z,99.90
2023-03-18T05:16:06.560Z,99.90
2023-03-18T05:18:33.806Z,99.90
2023-03-18T05:21:03.050Z,99.90
2023-03-18T05:23:31.508Z,99.90
2023-03-18T05:25:58.759Z,99.90
2023-03-18T05:28:27.787Z,99.90
2023-03-18T05:31:21.099Z,99.90
2023-03-18T05:33:48.314Z,99.90
2023-03-18T05:36:15.622Z,99.90
2023-03-18T05:39:00.957Z,99.90
2023-03-18T05:41:28.523Z,99.90
2023-03-18T05:43:57.233Z,99.90
2023-03-18T05:46:25.730Z,99.90
2023-03-18T05:49:02.823Z,99.90
2023-03-18T05:51:37.992Z,99.90
2023-03-18T05:54:05.626Z,99.90
2023-03-18T05:56:39.749Z,99.90
2023-03-18T06:02:19.447Z,99.90
2023-03-18T06:04:46.545Z,99.90
2023-03-18T06:07:15.153Z,99.90
2023-03-18T06:29:23.767Z,99.90
2023-03-18T06:31:53.993Z,99.90
2023-03-18T06:34:25.327Z,99.90
2023-03-18T06:36:52.470Z,99.90
2023-03-18T06:39:24.718Z,99.90
2023-03-18T06:41:53.046Z,99.90
2023-03-18T06:44:42.145Z,99.90
2023-03-18T06:47:18.248Z,99.90
2023-03-18T06:49:52.282Z,99.90
2023-03-18T06:52:24.749Z,99.90
2023-03-18T06:54:56.695Z,99.90
2023-03-18T06:57:23.902Z,99.90
2023-03-18T06:59:51.287Z,99.90
2023-03-18T07:02:18.370Z,99.90
2023-03-18T07:04:45.729Z,99.90
2023-03-18T07:07:13.067Z,99.90
2023-03-18T07:09:41.583Z,99.90
2023-03-18T07:12:09.488Z,99.90
2023-03-18T07:14:36.613Z,99.90
2023-03-18T07:17:03.882Z,99.90
2023-03-18T07:19:33.116Z,99.90
2023-03-18T07:22:00.518Z,99.90
2023-03-18T07:24:28.424Z,99.90
2023-03-18T07:26:56.049Z,99.90
2023-03-18T07:29:23.338Z,99.90
2023-03-18T07:31:51.126Z,99.90
2023-03-18T07:34:19.194Z,99.90
2023-03-18T07:36:48.062Z,99.90
2023-03-18T07:39:15.867Z,99.90
2023-03-18T07:41:43.074Z,99.90
2023-03-18T07:44:16.550Z,99.90
2023-03-18T07:46:45.648Z,99.90
2023-03-18T07:49:12.733Z,99.90
2023-03-18T07:51:39.806Z,99.90
2023-03-18T07:54:06.933Z,99.90
2023-03-18T07:56:34.676Z,99.90
2023-03-18T07:59:01.796Z,99.90
2023-03-18T08:01:30.815Z,99.90
2023-03-18T08:03:57.931Z,99.90
2023-03-18T08:06:25.278Z,99.90
2023-03-18T08:08:52.322Z,99.90
2023-03-18T08:11:19.430Z,99.90
2023-03-18T08:13:46.542Z,99.90
2023-03-18T08:16:13.722Z,99.90
2023-03-18T08:18:41.700Z,99.90
2023-03-18T08:21:09.497Z,99.90
2023-03-18T08:23:36.912Z,99.90
2023-03-18T08:26:04.099Z,99.90
2023-03-18T08:28:31.275Z,99.90
2023-03-18T08:30:59.133Z,99.90
2023-03-18T08:33:26.956Z,99.90
2023-03-18T08:35:54.698Z,99.90
2023-03-18T08:38:23.704Z,99.90
2023-03-18T08:40:51.015Z,99.90
2023-03-18T08:43:18.274Z,99.90
2023-03-18T08:45:45.911Z,99.90
2023-03-18T08:48:13.227Z,99.90
2023-03-18T08:50:40.621Z,99.90
2023-03-18T08:53:07.812Z,99.90
2023-03-18T08:55:36.979Z,99.90
2023-03-18T08:58:05.723Z,99.90
2023-03-18T09:00:33.293Z,99.90
2023-03-18T09:03:01.770Z,99.90
2023-03-18T09:05:30.541Z,99.90
2023-03-18T09:07:58.786Z,99.90
2023-03-18T09:10:26.154Z,99.90
2023-03-18T09:12:53.414Z,99.90
2023-03-18T09:15:20.801Z,99.90
2023-03-18T09:18:03.731Z,99.90
2023-03-18T09:20:35.479Z,99.90
2023-03-18T09:23:02.894Z,99.90
2023-03-18T09:25:30.406Z,99.90
2023-03-18T09:27:57.888Z,99.90
2023-03-18T09:30:26.352Z,99.90
2023-03-18T09:32:53.952Z,99.90
2023-03-18T09:35:21.190Z,99.90
2023-03-18T09:37:48.363Z,99.90
2023-03-18T09:40:38.038Z,99.90
2023-03-18T09:43:11.766Z,99.90
2023-03-18T09:45:42.067Z,98.50
2023-03-18T09:48:09.582Z,99.60
2023-03-18T09:50:39.711Z,97.10
2023-03-18T09:53:06.718Z,96.80
2023-03-18T09:55:36.540Z,97.50
2023-03-18T09:58:03.636Z,96.00
2023-03-18T10:00:34.731Z,95.70
2023-03-18T10:03:06.378Z,96.60
2023-03-18T10:05:34.684Z,96.50
2023-03-18T10:08:04.801Z,94.70
2023-03-18T10:10:36.663Z,93.60
2023-03-18T10:13:14.584Z,92.60
2023-03-18T10:15:46.268Z,91.80
2023-03-18T10:18:33.349Z,90.80
2023-03-18T10:21:20.402Z,91.10
2023-03-18T10:23:52.427Z,90.80
2023-03-18T10:26:20.954Z,90.50
2023-03-18T10:28:51.062Z,86.80
2023-03-18T10:31:21.205Z,84.50
2023-03-18T10:33:56.922Z,85.10
2023-03-18T10:36:25.673Z,84.30
2023-03-18T10:38:53.780Z,79.40
2023-03-18T10:41:27.735Z,80.00
2023-03-18T10:43:56.041Z,80.10
2023-03-18T10:46:23.261Z,73.50
2023-03-18T10:48:52.214Z,76.40
2023-03-18T10:51:22.377Z,75.10
2023-03-18T10:53:53.849Z,74.40
2023-03-18T10:56:20.976Z,72.00
2023-03-18T10:58:48.893Z,73.60
2023-03-18T11:01:19.089Z,78.20
2023-03-18T11:03:51.789Z,76.10
2023-03-18T11:06:25.209Z,76.00
2023-03-18T11:09:00.043Z,74.40
2023-03-18T11:11:28.920Z,73.40
2023-03-18T11:13:56.922Z,73.60
2023-03-18T11:16:32.696Z,74.10
2023-03-18T11:18:59.872Z,71.10
2023-03-18T11:21:28.744Z,72.40
2023-03-18T11:24:20.944Z,70.30
2023-03-18T11:26:49.621Z,71.30
2023-03-18T11:29:18.579Z,74.00
2023-03-18T11:31:50.041Z,68.70
2023-03-18T11:34:18.876Z,71.70
2023-03-18T11:36:55.365Z,68.60
2023-03-18T11:39:23.694Z,67.50
2023-03-18T11:41:52.786Z,70.30
2023-03-18T11:44:23.923Z,69.00
2023-03-18T11:46:53.445Z,67.70
2023-03-18T11:49:23.905Z,67.80
2023-03-18T11:52:00.273Z,66.10
2023-03-18T11:54:39.781Z,65.70
2023-03-18T11:57:13.041Z,69.20
2023-03-18T12:00:01.452Z,67.70
2023-03-18T12:02:58.056Z,67.20
2023-03-18T12:05:28.819Z,67.00
2023-03-18T12:08:09.731Z,67.20
2023-03-18T12:10:37.678Z,67.20
2023-03-18T12:13:29.681Z,66.40
2023-03-18T12:16:01.499Z,67.40
2023-03-18T12:18:29.628Z,67.10
2023-03-18T12:21:00.520Z,66.30
2023-03-18T12:23:30.613Z,67.10
2023-03-18T12:26:03.869Z,67.40
2023-03-18T12:28:34.455Z,67.20
2023-03-18T12:31:01.727Z,66.80
2023-03-18T12:33:32.388Z,65.80
2023-03-18T12:35:59.597Z,66.40
2023-03-18T12:38:36.774Z,64.50
2023-03-18T12:41:15.579Z,67.50
2023-03-18T12:44:04.754Z,68.70
2023-03-18T12:46:55.180Z,64.30
2023-03-18T12:49:29.743Z,64.00
2023-03-18T12:51:58.750Z,63.60
2023-03-18T12:54:26.964Z,63.80
2023-03-18T12:56:55.812Z,64.90
2023-03-18T12:59:42.058Z,63.80
2023-03-18T13:02:15.454Z,65.00
2023-03-18T13:04:42.613Z,65.10
2023-03-18T13:07:16.751Z,64.30
2023-03-18T13:09:51.062Z,63.80
2023-03-18T13:12:28.815Z,63.50
2023-03-18T13:14:59.528Z,63.60
2023-03-18T13:17:29.707Z,62.60
2023-03-18T13:19:58.040Z,63.00
2023-03-18T13:22:32.033Z,66.20
2023-03-18T13:25:06.057Z,62.70
2023-03-18T13:27:39.181Z,65.10
2023-03-18T13:30:12.650Z,62.90
2023-03-18T13:32:59.855Z,62.00
2023-03-18T13:35:45.110Z,62.20
2023-03-18T13:38:24.337Z,60.60
2023-03-18T13:40:56.180Z,60.60
2023-03-18T13:43:24.070Z,61.50
2023-03-18T13:45:52.130Z,61.70
2023-03-18T13:48:24.698Z,61.90
2023-03-18T13:50:51.800Z,61.40
2023-03-18T13:53:24.609Z,61.30
2023-03-18T13:55:53.465Z,60.10
2023-03-18T13:58:23.749Z,61.30
2023-03-18T14:00:56.976Z,60.00
2023-03-18T14:03:42.464Z,60.00
2023-03-18T14:06:15.272Z,60.60
2023-03-18T14:08:42.840Z,60.60
2023-03-18T14:11:28.670Z,60.70
2023-03-18T14:14:05.992Z,60.30
2023-03-18T14:16:37.770Z,60.30
2023-03-18T14:19:05.741Z,61.20
2023-03-18T14:21:33.179Z,61.00
2023-03-18T14:24:16.040Z,61.00
2023-03-18T14:26:58.483Z,60.80
2023-03-18T14:29:26.586Z,61.10
2023-03-18T14:31:58.051Z,59.20
2023-03-18T14:34:28.157Z,59.20
2023-03-18T14:36:58.382Z,59.70
2023-03-18T14:39:28.899Z,59.10
2023-03-18T14:41:57.105Z,59.70
2023-03-18T14:44:24.523Z,59.00
2023-03-18T14:46:58.149Z,59.70
2023-03-18T14:49:44.119Z,60.40
2023-03-18T14:52:32.205Z,60.10
2023-03-18T14:55:01.360Z,60.60
2023-03-18T14:57:29.573Z,60.60
2023-03-18T14:59:58.480Z,60.00
2023-03-18T15:02:34.192Z,59.60
2023-03-18T15:05:01.829Z,60.20
2023-03-18T15:07:36.074Z,60.70
2023-03-18T15:10:13.352Z,60.90
2023-03-18T15:12:40.507Z,62.30
2023-03-18T15:15:10.684Z,63.00
2023-03-18T15:17:38.257Z,62.90
2023-03-18T15:20:06.692Z,62.70
2023-03-18T15:22:34.798Z,62.60
2023-03-18T15:25:02.828Z,62.60
2023-03-18T15:27:31.165Z,63.30
2023-03-18T15:29:59.052Z,62.80
2023-03-18T15:32:33.204Z,62.10
2023-03-18T15:35:08.217Z,62.20
2023-03-18T15:37:40.793Z,63.10
2023-03-18T15:40:23.129Z,61.90
2023-03-18T15:42:50.138Z,63.50
2023-03-18T15:45:18.364Z,63.40
2023-03-18T15:47:45.552Z,63.40
2023-03-18T15:50:18.976Z,62.50
2023-03-18T15:52:46.515Z,63.30
2023-03-18T15:55:28.039Z,63.40
2023-03-18T15:57:55.272Z,64.00
2023-03-18T16:00:22.750Z,64.50
2023-03-18T16:02:50.480Z,64.80
2023-03-18T16:05:19.088Z,63.90
2023-03-18T16:07:46.701Z,64.60
2023-03-18T16:10:18.656Z,64.80
2023-03-18T16:13:04.412Z,65.40
2023-03-18T16:15:32.012Z,64.80
2023-03-18T16:17:59.315Z,64.60
2023-03-18T16:20:28.216Z,65.30
2023-03-18T16:22:55.743Z,65.10
2023-03-18T16:25:23.125Z,65.10
2023-03-18T16:27:51.099Z,65.30
2023-03-18T16:30:19.244Z,64.60
2023-03-18T16:32:46.633Z,65.30
2023-03-18T16:35:17.992Z,65.40
2023-03-18T16:37:45.298Z,66.00
2023-03-18T16:40:19.238Z,67.20
2023-03-18T16:42:47.956Z,67.30
2023-03-18T16:45:19.001Z,67.40
2023-03-18T16:47:46.545Z,66.40
2023-03-18T16:50:17.381Z,67.40
2023-03-18T16:52:45.003Z,68.00
2023-03-18T16:55:13.237Z,66.10
2023-03-18T16:57:41.550Z,67.30
2023-03-18T17:00:19.420Z,67.50
2023-03-18T17:02:46.540Z,67.70
2023-03-18T17:05:16.835Z,69.00
2023-03-18T17:07:44.342Z,68.20
2023-03-18T17:10:11.770Z,68.70
2023-03-18T17:12:39.849Z,69.60
2023-03-18T17:15:09.604Z,69.50
2023-03-18T17:17:36.827Z,69.50
2023-03-18T17:20:04.248Z,70.40
2023-03-18T17:22:32.522Z,71.00
2023-03-18T17:25:02.709Z,71.20
2023-03-18T17:27:31.580Z,71.90
2023-03-18T17:29:58.852Z,72.40
2023-03-18T17:32:26.072Z,72.80
2023-03-18T17:34:53.357Z,73.40
2023-03-18T17:37:20.632Z,73.90
2023-03-18T17:39:47.664Z,74.50
2023-03-18T17:42:24.883Z,74.80
2023-03-18T17:44:51.964Z,75.00
2023-03-18T17:47:19.359Z,75.30
2023-03-18T17:49:46.592Z,75.80
2023-03-18T17:52:13.677Z,76.30
2023-03-18T17:54:40.801Z,77.30
2023-03-18T17:57:10.057Z,76.70
2023-03-18T17:59:37.289Z,77.30
2023-03-18T18:02:04.558Z,77.50
2023-03-18T18:04:33.048Z,77.90
2023-03-18T18:07:00.480Z,78.60
2023-03-18T18:09:28.409Z,79.10
2023-03-18T18:11:55.491Z,79.30
2023-03-18T18:14:47.619Z,80.00
2023-03-18T18:17:15.265Z,80.50
2023-03-18T18:19:43.835Z,80.70
2023-03-18T18:22:17.915Z,81.10
2023-03-18T18:24:46.978Z,81.30
2023-03-18T18:27:14.761Z,81.70
2023-03-18T18:29:43.588Z,81.70
2023-03-18T18:32:10.728Z,82.00
2023-03-18T18:34:37.988Z,82.30
2023-03-18T18:37:05.234Z,82.70
2023-03-18T18:39:32.312Z,83.10
2023-03-18T18:41:59.380Z,83.30
2023-03-18T18:44:26.529Z,83.60
2023-03-18T18:46:53.820Z,83.70
2023-03-18T18:49:22.654Z,83.60
2023-03-18T18:51:50.573Z,83.90
2023-03-18T18:54:17.699Z,84.10
2023-03-18T18:56:44.969Z,84.30
2023-03-18T18:59:38.548Z,84.70
2023-03-18T19:02:13.284Z,84.90
2023-03-18T19:04:40.435Z,85.10
2023-03-18T19:07:07.693Z,85.30
2023-03-18T19:09:34.721Z,85.70
2023-03-18T19:12:01.817Z,85.80
2023-03-18T19:14:28.979Z,85.80
2023-03-18T19:16:57.346Z,85.90
2023-03-18T19:19:25.207Z,86.00
2023-03-18T19:21:52.254Z,86.30
2023-03-18T19:24:29.419Z,86.40
2023-03-18T19:27:06.152Z,86.60
2023-03-18T19:29:33.328Z,86.80
2023-03-18T19:32:01.690Z,87.10
2023-03-18T19:34:29.718Z,87.10
2023-03-18T19:36:56.881Z,87.30
2023-03-18T19:39:24.858Z,87.30
2023-03-18T19:41:52.117Z,87.40
2023-03-18T19:44:20.975Z,87.50
2023-03-18T19:46:48.326Z,87.80
2023-03-18T19:49:20.662Z,88.30
2023-03-18T19:51:48.958Z,88.80
2023-03-18T19:54:32.585Z,89.00
2023-03-18T19:57:01.353Z,89.20
2023-03-18T19:59:37.094Z,89.40
2023-03-18T20:02:14.587Z,89.60
2023-03-18T20:04:41.978Z,89.90
2023-03-18T20:07:09.059Z,90.10
2023-03-18T20:09:37.186Z,90.30
2023-03-18T20:12:05.950Z,90.50
2023-03-18T20:14:38.153Z,90.60
2023-03-18T20:17:23.863Z,90.70
2023-03-18T20:19:51.084Z,90.90
2023-03-18T20:22:26.218Z,91.00
2023-03-18T20:24:53.303Z,91.10
2023-03-18T20:27:20.736Z,91.20
2023-03-18T20:29:47.873Z,91.40
2023-03-18T20:32:15.021Z,91.50
2023-03-18T20:34:43.777Z,92.00
2023-03-18T20:37:18.294Z,91.70
2023-03-18T20:39:45.917Z,91.90
2023-03-18T20:42:14.931Z,92.00
2023-03-18T20:44:42.076Z,92.10
2023-03-18T20:47:09.266Z,92.20
2023-03-18T20:49:37.936Z,92.30
2023-03-18T20:52:05.050Z,92.50
2023-03-18T20:54:32.223Z,92.50
2023-03-18T20:56:59.293Z,92.70
2023-03-18T20:59:26.403Z,92.80
2023-03-18T21:01:53.520Z,93.30
2023-03-18T21:04:20.697Z,93.20
2023-03-18T21:06:48.612Z,93.30
2023-03-18T21:09:15.766Z,93.40
2023-03-18T21:11:43.025Z,93.60
2023-03-18T21:14:13.415Z,93.80
2023-03-18T21:16:40.702Z,94.00
2023-03-18T21:19:07.924Z,94.20
2023-03-18T21:21:36.532Z,94.30
2023-03-18T21:24:06.623Z,94.40
2023-03-18T21:26:33.847Z,94.60
2023-03-18T21:29:01.254Z,94.70
2023-03-18T21:31:31.023Z,94.80
2023-03-18T21:33:58.137Z,95.00
2023-03-18T21:36:26.039Z,95.20
2023-03-18T21:38:53.255Z,95.30
2023-03-18T21:41:21.479Z,95.50
2023-03-18T21:43:48.706Z,95.70
2023-03-18T21:46:17.567Z,96.30
2023-03-18T21:48:45.065Z,96.10
2023-03-18T21:51:35.242Z,96.30
2023-03-18T21:54:05.153Z,96.50
2023-03-18T21:56:32.366Z,96.60
2023-03-18T21:58:59.454Z,96.80
2023-03-18T22:01:29.614Z,97.00
2023-03-18T22:03:57.015Z,97.20
2023-03-18T22:06:24.948Z,97.30
2023-03-18T22:08:52.123Z,97.60
2023-03-18T22:11:19.773Z,97.70
2023-03-18T22:13:47.574Z,97.90
2023-03-18T22:16:15.327Z,98.10
2023-03-18T22:18:42.642Z,98.30
2023-03-18T22:21:11.633Z,98.50
2023-03-18T22:23:41.814Z,98.70
2023-03-18T22:26:11.454Z,98.90
2023-03-18T22:28:38.707Z,99.10
2023-03-18T22:31:07.167Z,99.40
2023-03-18T22:33:59.767Z,99.50
2023-03-18T22:36:28.969Z,99.80
2023-03-18T22:38:56.273Z,99.90
2023-03-18T22:41:30.252Z,99.90
2023-03-18T22:44:00.145Z,99.90
2023-03-18T22:46:28.368Z,99.90
2023-03-18T22:48:55.682Z,99.90
2023-03-18T22:51:32.214Z,99.90
2023-03-18T22:53:59.334Z,99.90
2023-03-18T22:56:26.488Z,99.90
2023-03-18T22:58:53.646Z,99.90
2023-03-18T23:01:21.472Z,99.90
2023-03-18T23:03:48.950Z,99.90
2023-03-18T23:06:19.858Z,99.90
2023-03-18T23:08:47.240Z,99.90
2023-03-18T23:11:14.622Z,99.90
2023-03-18T23:13:42.453Z,99.90
2023-03-18T23:16:13.277Z,99.90
2023-03-18T23:18:40.536Z,99.90
2023-03-18T23:21:09.908Z,99.90
2023-03-18T23:23:37.001Z,99.90
2023-03-18T23:26:04.180Z,99.90
2023-03-18T23:28:34.534Z,99.90
2023-03-18T23:31:05.880Z,99.90
2023-03-18T23:33:33.038Z,99.90
2023-03-18T23:36:00.165Z,99.90
2023-03-18T23:38:27.466Z,99.90
2023-03-18T23:40:54.573Z,99.90
2023-03-18T23:43:21.834Z,99.90
2023-03-18T23:45:49.106Z,99.90
2023-03-18T23:48:16.389Z,99.90
2023-03-18T23:50:43.522Z,99.90
2023-03-18T23:53:10.874Z,99.90
2023-03-18T23:55:38.134Z,99.90
2023-03-18T23:58:05.726Z,99.90
